sensor_id;sensor_type;location;lat;lon;timestamp;pressure;altitude;pressure_sealevel;temperature;humidity
6345;BME280;3205;42.666;23.264;2023-11-21T00:01:01;94206.69;;;5.04;100.00
6345;BME280;3205;42.666;23.264;2023-11-21T00:03:29;94209.03;;;5.05;100.00
6345;BME280;3205;42.666;23.264;2023-11-21T00:05:56;94209.06;;;5.13;100.00
6345;BME280;3205;42.666;23.264;2023-11-21T00:08:22;94209.66;;;5.11;100.00
6345;BME280;3205;42.666;23.264;2023-11-21T00:10:48;94210.56;;;5.06;100.00
6345;BME280;3205;42.666;23.264;2023-11-21T00:13:14;94211.97;;;5.12;100.00
6345;BME280;3205;42.666;23.264;2023-11-21T00:15:43;94211.53;;;5.18;100.00
6345;BME280;3205;42.666;23.264;2023-11-21T00:18:09;94215.84;;;5.14;100.00
6345;BME280;3205;42.666;23.264;2023-11-21T00:20:35;94217.69;;;5.14;100.00
6345;BME280;3205;42.666;23.264;2023-11-21T00:23:02;94212.63;;;5.17;100.00
6345;BME280;3205;42.666;23.264;2023-11-21T00:25:29;94208.75;;;5.15;100.00
6345;BME280;3205;42.666;23.264;2023-11-21T00:27:55;94206.47;;;5.22;100.00
6345;BME280;3205;42.666;23.264;2023-11-21T00:30:22;94211.56;;;5.27;100.00
6345;BME280;3205;42.666;23.264;2023-11-21T00:32:48;94207.72;;;5.24;100.00
6345;BME280;3205;42.666;23.264;2023-11-21T00:35:14;94204.78;;;5.26;100.00
6345;BME280;3205;42.666;23.264;2023-11-21T00:37:41;94202.16;;;5.26;100.00
6345;BME280;3205;42.666;23.264;2023-11-21T00:40:10;94210.19;;;5.29;100.00
6345;BME280;3205;42.666;23.264;2023-11-21T00:42:36;94199.69;;;5.29;100.00
6345;BME280;3205;42.666;23.264;2023-11-21T00:45:03;94202.81;;;5.31;100.00
6345;BME280;3205;42.666;23.264;2023-11-21T00:47:29;94215.09;;;5.22;100.00
6345;BME280;3205;42.666;23.264;2023-11-21T00:49:55;94210.63;;;5.14;100.00
6345;BME280;3205;42.666;23.264;2023-11-21T00:52:22;94206.28;;;5.10;100.00
6345;BME280;3205;42.666;23.264;2023-11-21T00:54:48;94208.06;;;5.01;100.00
6345;BME280;3205;42.666;23.264;2023-11-21T00:57:15;94200.66;;;4.95;100.00
6345;BME280;3205;42.666;23.264;2023-11-21T00:59:41;94191.19;;;4.85;100.00
6345;BME280;3205;42.666;23.264;2023-11-21T01:02:08;94186.75;;;4.86;100.00
6345;BME280;3205;42.666;23.264;2023-11-21T01:04:36;94192.25;;;4.76;100.00
6345;BME280;3205;42.666;23.264;2023-11-21T01:07:02;94191.63;;;4.70;100.00
6345;BME280;3205;42.666;23.264;2023-11-21T01:09:28;94185.91;;;4.68;100.00
6345;BME280;3205;42.666;23.264;2023-11-21T01:11:55;94180.19;;;4.66;100.00
6345;BME280;3205;42.666;23.264;2023-11-21T01:14:23;94179.03;;;4.81;100.00
6345;BME280;3205;42.666;23.264;2023-11-21T01:16:49;94182.28;;;4.86;100.00
6345;BME280;3205;42.666;23.264;2023-11-21T01:19:15;94177.28;;;4.98;100.00
6345;BME280;3205;42.666;23.264;2023-11-21T01:21:41;94190.63;;;4.88;100.00
6345;BME280;3205;42.666;23.264;2023-11-21T01:24:08;94200.00;;;4.59;100.00
6345;BME280;3205;42.666;23.264;2023-11-21T01:26:34;94191.84;;;4.60;100.00
6345;BME280;3205;42.666;23.264;2023-11-21T01:29:00;94197.22;;;4.55;100.00
6345;BME280;3205;42.666;23.264;2023-11-21T01:31:27;94181.81;;;4.54;100.00
6345;BME280;3205;42.666;23.264;2023-11-21T01:33:55;94185.63;;;4.48;100.00
6345;BME280;3205;42.666;23.264;2023-11-21T01:36:21;94183.13;;;4.43;100.00
6345;BME280;3205;42.666;23.264;2023-11-21T01:38:47;94191.41;;;4.37;100.00
6345;BME280;3205;42.666;23.264;2023-11-21T01:41:14;94189.69;;;4.32;100.00
6345;BME280;3205;42.666;23.264;2023-11-21T01:43:40;94194.44;;;4.30;100.00
6345;BME280;3205;42.666;23.264;2023-11-21T01:46:08;94196.13;;;4.26;100.00
6345;BME280;3205;42.666;23.264;2023-11-21T01:48:35;94180.13;;;4.28;100.00
6345;BME280;3205;42.666;23.264;2023-11-21T01:51:02;94171.97;;;4.29;100.00
6345;BME280;3205;42.666;23.264;2023-11-21T01:53:28;94174.88;;;4.28;100.00
6345;BME280;3205;42.666;23.264;2023-11-21T01:55:56;94183.50;;;4.28;100.00
6345;BME280;3205;42.666;23.264;2023-11-21T01:58:23;94183.25;;;4.16;100.00
6345;BME280;3205;42.666;23.264;2023-11-21T02:00:49;94186.19;;;4.15;100.00
6345;BME280;3205;42.666;23.264;2023-11-21T02:03:16;94182.31;;;4.12;100.00
6345;BME280;3205;42.666;23.264;2023-11-21T02:05:43;94179.28;;;4.19;100.00
6345;BME280;3205;42.666;23.264;2023-11-21T02:08:09;94180.78;;;4.11;100.00
6345;BME280;3205;42.666;23.264;2023-11-21T02:10:36;94183.69;;;4.10;100.00
6345;BME280;3205;42.666;23.264;2023-11-21T02:13:03;94185.94;;;4.25;100.00
6345;BME280;3205;42.666;23.264;2023-11-21T02:15:29;94176.84;;;4.22;100.00
6345;BME280;3205;42.666;23.264;2023-11-21T02:17:55;94172.03;;;4.16;100.00
6345;BME280;3205;42.666;23.264;2023-11-21T02:20:23;94174.22;;;4.22;100.00
6345;BME280;3205;42.666;23.264;2023-11-21T02:22:53;94180.69;;;4.25;100.00
6345;BME280;3205;42.666;23.264;2023-11-21T02:25:23;94175.94;;;4.27;100.00
6345;BME280;3205;42.666;23.264;2023-11-21T02:27:49;94179.97;;;4.33;100.00
6345;BME280;3205;42.666;23.264;2023-11-21T02:30:16;94179.41;;;4.36;100.00
6345;BME280;3205;42.666;23.264;2023-11-21T02:32:43;94173.69;;;4.34;100.00
6345;BME280;3205;42.666;23.264;2023-11-21T02:35:09;94175.88;;;4.40;100.00
6345;BME280;3205;42.666;23.264;2023-11-21T02:37:37;94178.34;;;4.37;100.00
6345;BME280;3205;42.666;23.264;2023-11-21T02:40:07;94175.22;;;4.35;100.00
6345;BME280;3205;42.666;23.264;2023-11-21T02:42:35;94179.03;;;4.29;100.00
6345;BME280;3205;42.666;23.264;2023-11-21T02:45:01;94175.47;;;4.25;100.00
6345;BME280;3205;42.666;23.264;2023-11-21T02:47:27;94174.88;;;4.28;100.00
6345;BME280;3205;42.666;23.264;2023-11-21T02:49:54;94172.03;;;4.16;100.00
6345;BME280;3205;42.666;23.264;2023-11-21T02:52:20;94174.28;;;4.09;100.00
6345;BME280;3205;42.666;23.264;2023-11-21T02:54:46;94172.88;;;4.03;100.00
6345;BME280;3205;42.666;23.264;2023-11-21T02:57:13;94178.63;;;3.91;100.00
6345;BME280;3205;42.666;23.264;2023-11-21T02:59:39;94175.22;;;3.91;100.00
6345;BME280;3205;42.666;23.264;2023-11-21T03:02:05;94168.75;;;3.88;100.00
6345;BME280;3205;42.666;23.264;2023-11-21T03:04:33;94162.25;;;3.86;100.00
6345;BME280;3205;42.666;23.264;2023-11-21T03:07:00;94160.44;;;3.86;100.00
6345;BME280;3205;42.666;23.264;2023-11-21T03:09:26;94151.44;;;3.79;100.00
6345;BME280;3205;42.666;23.264;2023-11-21T03:11:53;94161.13;;;3.78;100.00
6345;BME280;3205;42.666;23.264;2023-11-21T03:14:19;94155.13;;;3.78;100.00
6345;BME280;3205;42.666;23.264;2023-11-21T03:16:48;94162.19;;;3.77;100.00
6345;BME280;3205;42.666;23.264;2023-11-21T03:19:15;94169.25;;;3.77;100.00
6345;BME280;3205;42.666;23.264;2023-11-21T03:21:41;94173.91;;;3.80;100.00
6345;BME280;3205;42.666;23.264;2023-11-21T03:24:07;94174.09;;;3.83;100.00
6345;BME280;3205;42.666;23.264;2023-11-21T03:26:33;94176.41;;;3.85;100.00
6345;BME280;3205;42.666;23.264;2023-11-21T03:28:59;94177.75;;;3.82;100.00
6345;BME280;3205;42.666;23.264;2023-11-21T03:31:26;94184.91;;;3.90;100.00
6345;BME280;3205;42.666;23.264;2023-11-21T03:33:52;94179.69;;;3.90;100.00
6345;BME280;3205;42.666;23.264;2023-11-21T03:36:19;94176.00;;;3.91;100.00
6345;BME280;3205;42.666;23.264;2023-11-21T03:38:45;94167.84;;;3.93;100.00
6345;BME280;3205;42.666;23.264;2023-11-21T03:41:11;94169.28;;;3.99;100.00
6345;BME280;3205;42.666;23.264;2023-11-21T03:43:37;94166.38;;;4.00;100.00
6345;BME280;3205;42.666;23.264;2023-11-21T03:46:04;94157.63;;;4.05;100.00
6345;BME280;3205;42.666;23.264;2023-11-21T03:48:31;94154.44;;;4.08;100.00
6345;BME280;3205;42.666;23.264;2023-11-21T03:50:58;94154.31;;;4.13;100.00
6345;BME280;3205;42.666;23.264;2023-11-21T03:53:24;94150.97;;;4.21;100.00
6345;BME280;3205;42.666;23.264;2023-11-21T03:55:50;94152.47;;;4.13;100.00
6345;BME280;3205;42.666;23.264;2023-11-21T03:58:16;94147.44;;;4.17;100.00
6345;BME280;3205;42.666;23.264;2023-11-21T04:00:43;94157.75;;;4.22;100.00
6345;BME280;3205;42.666;23.264;2023-11-21T04:03:09;94144.25;;;4.28;100.00
6345;BME280;3205;42.666;23.264;2023-11-21T04:05:36;94144.66;;;4.43;100.00
6345;BME280;3205;42.666;23.264;2023-11-21T04:08:02;94146.94;;;4.37;100.00
6345;BME280;3205;42.666;23.264;2023-11-21T04:10:28;94149.06;;;4.35;100.00
6345;BME280;3205;42.666;23.264;2023-11-21T04:12:54;94143.66;;;4.31;100.00
6345;BME280;3205;42.666;23.264;2023-11-21T04:15:21;94151.66;;;4.26;100.00
6345;BME280;3205;42.666;23.264;2023-11-21T04:17:47;94149.31;;;4.25;100.00
6345;BME280;3205;42.666;23.264;2023-11-21T04:20:13;94150.50;;;4.19;100.00
6345;BME280;3205;42.666;23.264;2023-11-21T04:22:41;94141.91;;;4.18;100.00
6345;BME280;3205;42.666;23.264;2023-11-21T04:25:09;94159.22;;;4.14;100.00
6345;BME280;3205;42.666;23.264;2023-11-21T04:27:36;94146.28;;;4.09;100.00
6345;BME280;3205;42.666;23.264;2023-11-21T04:30:03;94146.91;;;4.06;100.00
6345;BME280;3205;42.666;23.264;2023-11-21T04:32:29;94147.19;;;4.05;100.00
6345;BME280;3205;42.666;23.264;2023-11-21T04:34:55;94153.66;;;4.07;100.00
6345;BME280;3205;42.666;23.264;2023-11-21T04:37:21;94150.75;;;4.09;100.00
6345;BME280;3205;42.666;23.264;2023-11-21T04:39:48;94148.19;;;4.17;100.00
6345;BME280;3205;42.666;23.264;2023-11-21T04:42:14;94146.53;;;3.99;100.00
6345;BME280;3205;42.666;23.264;2023-11-21T04:44:41;94143.94;;;3.99;100.00
6345;BME280;3205;42.666;23.264;2023-11-21T04:47:07;94152.13;;;4.06;100.00
6345;BME280;3205;42.666;23.264;2023-11-21T04:49:33;94154.44;;;4.08;100.00
6345;BME280;3205;42.666;23.264;2023-11-21T04:51:59;94158.00;;;4.12;100.00
6345;BME280;3205;42.666;23.264;2023-11-21T04:54:26;94165.97;;;4.07;100.00
6345;BME280;3205;42.666;23.264;2023-11-21T04:56:53;94158.13;;;4.07;100.00
6345;BME280;3205;42.666;23.264;2023-11-21T04:59:19;94157.63;;;4.05;100.00
6345;BME280;3205;42.666;23.264;2023-11-21T05:01:46;94153.06;;;4.10;100.00
6345;BME280;3205;42.666;23.264;2023-11-21T05:04:12;94156.25;;;4.07;100.00
6345;BME280;3205;42.666;23.264;2023-11-21T05:06:40;94166.91;;;4.11;100.00
6345;BME280;3205;42.666;23.264;2023-11-21T05:09:06;94154.78;;;4.15;100.00
6345;BME280;3205;42.666;23.264;2023-11-21T05:11:37;94146.16;;;4.14;100.00
6345;BME280;3205;42.666;23.264;2023-11-21T05:14:04;94146.41;;;4.26;100.00
6345;BME280;3205;42.666;23.264;2023-11-21T05:16:31;94139.19;;;4.32;100.00
6345;BME280;3205;42.666;23.264;2023-11-21T05:18:57;94141.19;;;4.26;100.00
6345;BME280;3205;42.666;23.264;2023-11-21T05:21:26;94143.06;;;4.34;100.00
6345;BME280;3205;42.666;23.264;2023-11-21T05:23:52;94140.50;;;4.42;100.00
6345;BME280;3205;42.666;23.264;2023-11-21T05:26:18;94149.13;;;4.43;100.00
6345;BME280;3205;42.666;23.264;2023-11-21T05:28:44;94155.47;;;4.50;100.00
6345;BME280;3205;42.666;23.264;2023-11-21T05:31:11;94159.78;;;4.55;100.00
6345;BME280;3205;42.666;23.264;2023-11-21T05:33:37;94154.88;;;4.53;100.00
6345;BME280;3205;42.666;23.264;2023-11-21T05:36:04;94163.03;;;4.52;100.00
6345;BME280;3205;42.666;23.264;2023-11-21T05:38:33;94157.69;;;4.65;100.00
6345;BME280;3205;42.666;23.264;2023-11-21T05:41:00;94157.25;;;4.63;100.00
6345;BME280;3205;42.666;23.264;2023-11-21T05:43:26;94165.03;;;4.55;100.00
6345;BME280;3205;42.666;23.264;2023-11-21T05:45:54;94174.16;;;4.57;100.00
6345;BME280;3205;42.666;23.264;2023-11-21T05:48:21;94167.09;;;4.66;100.00
6345;BME280;3205;42.666;23.264;2023-11-21T05:50:48;94154.63;;;4.63;100.00
6345;BME280;3205;42.666;23.264;2023-11-21T05:53:15;94160.72;;;4.81;100.00
6345;BME280;3205;42.666;23.264;2023-11-21T05:55:42;94146.41;;;4.87;100.00
6345;BME280;3205;42.666;23.264;2023-11-21T05:58:08;94152.19;;;5.06;100.00
6345;BME280;3205;42.666;23.264;2023-11-21T06:00:34;94157.81;;;4.91;100.00
6345;BME280;3205;42.666;23.264;2023-11-21T06:03:01;94157.59;;;5.17;100.00
6345;BME280;3205;42.666;23.264;2023-11-21T06:05:28;94165.34;;;5.31;100.00
6345;BME280;3205;42.666;23.264;2023-11-21T06:07:57;94164.44;;;5.35;100.00
6345;BME280;3205;42.666;23.264;2023-11-21T06:10:24;94167.97;;;5.31;100.00
6345;BME280;3205;42.666;23.264;2023-11-21T06:12:51;94176.59;;;5.40;100.00
6345;BME280;3205;42.666;23.264;2023-11-21T06:15:17;94180.94;;;5.53;100.00
6345;BME280;3205;42.666;23.264;2023-11-21T06:17:44;94181.34;;;5.77;100.00
6345;BME280;3205;42.666;23.264;2023-11-21T06:20:15;94182.75;;;5.99;100.00
6345;BME280;3205;42.666;23.264;2023-11-21T06:22:46;94179.03;;;6.17;100.00
6345;BME280;3205;42.666;23.264;2023-11-21T06:25:14;94186.59;;;6.19;100.00
6345;BME280;3205;42.666;23.264;2023-11-21T06:27:42;94181.81;;;6.29;100.00
6345;BME280;3205;42.666;23.264;2023-11-21T06:30:09;94182.59;;;6.30;100.00
6345;BME280;3205;42.666;23.264;2023-11-21T06:32:35;94188.13;;;6.54;100.00
6345;BME280;3205;42.666;23.264;2023-11-21T06:35:01;94180.81;;;6.67;100.00
6345;BME280;3205;42.666;23.264;2023-11-21T06:37:29;94194.41;;;6.78;100.00
6345;BME280;3205;42.666;23.264;2023-11-21T06:39:58;94197.84;;;7.07;100.00
6345;BME280;3205;42.666;23.264;2023-11-21T06:42:24;94202.56;;;7.31;100.00
6345;BME280;3205;42.666;23.264;2023-11-21T06:44:51;94202.94;;;7.49;100.00
6345;BME280;3205;42.666;23.264;2023-11-21T06:47:17;94207.84;;;7.88;100.00
6345;BME280;3205;42.666;23.264;2023-11-21T06:49:46;94210.44;;;8.37;100.00
6345;BME280;3205;42.666;23.264;2023-11-21T06:52:13;94217.13;;;8.87;100.00
6345;BME280;3205;42.666;23.264;2023-11-21T06:54:39;94222.13;;;9.13;100.00
6345;BME280;3205;42.666;23.264;2023-11-21T06:57:06;94221.06;;;9.38;100.00
6345;BME280;3205;42.666;23.264;2023-11-21T06:59:33;94225.50;;;9.69;100.00
6345;BME280;3205;42.666;23.264;2023-11-21T07:01:59;94223.41;;;9.99;100.00
6345;BME280;3205;42.666;23.264;2023-11-21T07:04:25;94224.56;;;10.37;100.00
6345;BME280;3205;42.666;23.264;2023-11-21T07:06:51;94234.09;;;10.41;100.00
6345;BME280;3205;42.666;23.264;2023-11-21T07:09:17;94219.59;;;10.35;100.00
6345;BME280;3205;42.666;23.264;2023-11-21T07:11:47;94214.28;;;10.47;100.00
6345;BME280;3205;42.666;23.264;2023-11-21T07:14:14;94209.75;;;10.75;100.00
6345;BME280;3205;42.666;23.264;2023-11-21T07:16:40;94207.94;;;10.91;100.00
6345;BME280;3205;42.666;23.264;2023-11-21T07:19:07;94212.22;;;11.11;100.00
6345;BME280;3205;42.666;23.264;2023-11-21T07:21:34;94212.22;;;10.96;100.00
6345;BME280;3205;42.666;23.264;2023-11-21T07:24:00;94201.78;;;10.87;100.00
6345;BME280;3205;42.666;23.264;2023-11-21T07:26:26;94216.13;;;10.86;100.00
6345;BME280;3205;42.666;23.264;2023-11-21T07:28:53;94214.75;;;10.92;100.00
6345;BME280;3205;42.666;23.264;2023-11-21T07:31:20;94226.88;;;10.93;100.00
6345;BME280;3205;42.666;23.264;2023-11-21T07:33:47;94227.41;;;10.71;100.00
6345;BME280;3205;42.666;23.264;2023-11-21T07:36:13;94229.00;;;10.48;100.00
6345;BME280;3205;42.666;23.264;2023-11-21T07:38:40;94229.47;;;10.50;100.00
6345;BME280;3205;42.666;23.264;2023-11-21T07:41:06;94229.00;;;10.48;100.00
6345;BME280;3205;42.666;23.264;2023-11-21T07:43:33;94232.88;;;10.51;100.00
6345;BME280;3205;42.666;23.264;2023-11-21T07:46:00;94211.50;;;10.56;100.00
6345;BME280;3205;42.666;23.264;2023-11-21T07:48:28;94202.19;;;10.89;100.00
6345;BME280;3205;42.666;23.264;2023-11-21T07:50:55;94215.53;;;10.93;100.00
6345;BME280;3205;42.666;23.264;2023-11-21T07:53:21;94205.69;;;11.36;100.00
6345;BME280;3205;42.666;23.264;2023-11-21T07:55:47;94217.31;;;11.47;100.00
6345;BME280;3205;42.666;23.264;2023-11-21T07:58:14;94212.41;;;11.61;100.00
6345;BME280;3205;42.666;23.264;2023-11-21T08:00:40;94199.81;;;11.42;100.00
6345;BME280;3205;42.666;23.264;2023-11-21T08:03:06;94202.00;;;11.40;100.00
6345;BME280;3205;42.666;23.264;2023-11-21T08:05:33;94199.63;;;11.20;100.00
6345;BME280;3205;42.666;23.264;2023-11-21T08:08:00;94202.75;;;10.67;100.00
6345;BME280;3205;42.666;23.264;2023-11-21T08:10:26;94200.88;;;10.68;100.00
6345;BME280;3205;42.666;23.264;2023-11-21T08:12:52;94201.31;;;10.70;100.00
6345;BME280;3205;42.666;23.264;2023-11-21T08:15:19;94198.47;;;10.90;100.00
6345;BME280;3205;42.666;23.264;2023-11-21T08:17:45;94196.44;;;11.57;100.00
6345;BME280;3205;42.666;23.264;2023-11-21T08:20:12;94202.47;;;11.88;100.00
6345;BME280;3205;42.666;23.264;2023-11-21T08:22:42;94198.91;;;12.15;100.00
6345;BME280;3205;42.666;23.264;2023-11-21T08:25:08;94194.22;;;12.28;100.00
6345;BME280;3205;42.666;23.264;2023-11-21T08:27:35;94193.28;;;12.55;100.00
6345;BME280;3205;42.666;23.264;2023-11-21T08:30:02;94186.16;;;12.77;100.00
6345;BME280;3205;42.666;23.264;2023-11-21T08:32:28;94196.34;;;12.75;100.00
6345;BME280;3205;42.666;23.264;2023-11-21T08:34:56;94197.78;;;12.88;100.00
6345;BME280;3205;42.666;23.264;2023-11-21T08:37:22;94197.84;;;12.92;100.00
6345;BME280;3205;42.666;23.264;2023-11-21T08:39:50;94188.13;;;12.99;100.00
6345;BME280;3205;42.666;23.264;2023-11-21T08:42:18;94196.59;;;13.05;100.00
6345;BME280;3205;42.666;23.264;2023-11-21T08:44:44;94198.69;;;12.96;100.00
6345;BME280;3205;42.666;23.264;2023-11-21T08:47:11;94195.03;;;12.85;100.00
6345;BME280;3205;42.666;23.264;2023-11-21T08:49:37;94184.94;;;12.90;100.00
6345;BME280;3205;42.666;23.264;2023-11-21T08:52:03;94191.72;;;12.88;100.00
6345;BME280;3205;42.666;23.264;2023-11-21T08:54:30;94186.59;;;12.98;100.00
6345;BME280;3205;42.666;23.264;2023-11-21T08:56:57;94177.41;;;13.15;100.00
6345;BME280;3205;42.666;23.264;2023-11-21T08:59:25;94175.31;;;13.46;100.00
6345;BME280;3205;42.666;23.264;2023-11-21T09:01:52;94169.50;;;13.85;100.00
6345;BME280;3205;42.666;23.264;2023-11-21T09:04:18;94160.53;;;14.19;100.00
6345;BME280;3205;42.666;23.264;2023-11-21T09:06:44;94153.13;;;14.35;100.00
6345;BME280;3205;42.666;23.264;2023-11-21T09:09:11;94145.69;;;13.92;100.00
6345;BME280;3205;42.666;23.264;2023-11-21T09:11:37;94140.97;;;13.56;100.00
6345;BME280;3205;42.666;23.264;2023-11-21T09:14:05;94143.69;;;13.15;100.00
6345;BME280;3205;42.666;23.264;2023-11-21T09:16:31;94139.84;;;12.71;100.00
6345;BME280;3205;42.666;23.264;2023-11-21T09:18:58;94128.47;;;12.71;100.00
6345;BME280;3205;42.666;23.264;2023-11-21T09:21:25;94116.06;;;12.56;100.00
6345;BME280;3205;42.666;23.264;2023-11-21T09:23:51;94108.31;;;12.29;100.00
6345;BME280;3205;42.666;23.264;2023-11-21T09:26:18;94104.06;;;12.05;100.00
6345;BME280;3205;42.666;23.264;2023-11-21T09:28:44;94104.84;;;12.06;100.00
6345;BME280;3205;42.666;23.264;2023-11-21T09:31:13;94085.94;;;12.07;100.00
6345;BME280;3205;42.666;23.264;2023-11-21T09:33:41;94083.56;;;12.21;100.00
6345;BME280;3205;42.666;23.264;2023-11-21T09:36:11;94086.91;;;12.18;100.00
6345;BME280;3205;42.666;23.264;2023-11-21T09:38:37;94074.69;;;11.95;100.00
6345;BME280;3205;42.666;23.264;2023-11-21T09:41:06;94087.34;;;12.01;100.00
6345;BME280;3205;42.666;23.264;2023-11-21T09:43:38;94075.66;;;12.44;100.00
6345;BME280;3205;42.666;23.264;2023-11-21T09:46:06;94055.72;;;12.50;100.00
6345;BME280;3205;42.666;23.264;2023-11-21T09:48:37;94044.50;;;12.37;100.00
6345;BME280;3205;42.666;23.264;2023-11-21T09:51:06;94048.69;;;12.19;100.00
6345;BME280;3205;42.666;23.264;2023-11-21T09:53:34;94043.63;;;12.11;100.00
6345;BME280;3205;42.666;23.264;2023-11-21T09:56:01;94032.28;;;12.10;100.00
6345;BME280;3205;42.666;23.264;2023-11-21T09:58:28;94030.28;;;12.26;100.00
6345;BME280;3205;42.666;23.264;2023-11-21T10:00:55;94036.34;;;12.46;100.00
6345;BME280;3205;42.666;23.264;2023-11-21T10:03:23;94036.84;;;12.73;100.00
6345;BME280;3205;42.666;23.264;2023-11-21T10:05:51;94028.75;;;13.11;100.00
6345;BME280;3205;42.666;23.264;2023-11-21T10:08:20;94018.34;;;12.99;100.00
6345;BME280;3205;42.666;23.264;2023-11-21T10:10:51;94010.69;;;12.94;100.00
6345;BME280;3205;42.666;23.264;2023-11-21T10:13:18;94004.75;;;12.82;100.00
6345;BME280;3205;42.666;23.264;2023-11-21T10:15:49;94011.06;;;12.96;100.00
6345;BME280;3205;42.666;23.264;2023-11-21T10:18:16;94009.69;;;13.06;100.00
6345;BME280;3205;42.666;23.264;2023-11-21T10:20:43;94000.72;;;12.88;100.00
6345;BME280;3205;42.666;23.264;2023-11-21T10:23:12;94005.50;;;12.82;100.00
6345;BME280;3205;42.666;23.264;2023-11-21T10:25:40;94001.00;;;12.83;100.00
6345;BME280;3205;42.666;23.264;2023-11-21T10:28:06;93999.91;;;12.65;100.00
6345;BME280;3205;42.666;23.264;2023-11-21T10:30:33;94007.41;;;12.82;100.00
6345;BME280;3205;42.666;23.264;2023-11-21T10:33:02;94001.56;;;12.73;100.00
6345;BME280;3205;42.666;23.264;2023-11-21T10:35:39;93992.50;;;12.74;100.00
6345;BME280;3205;42.666;23.264;2023-11-21T10:38:05;93984.72;;;12.84;100.00
6345;BME280;3205;42.666;23.264;2023-11-21T10:40:34;93986.81;;;12.94;100.00
6345;BME280;3205;42.666;23.264;2023-11-21T10:43:06;93983.94;;;13.06;100.00
6345;BME280;3205;42.666;23.264;2023-11-21T10:45:34;93986.72;;;13.13;100.00
6345;BME280;3205;42.666;23.264;2023-11-21T10:48:00;93987.31;;;13.03;100.00
6345;BME280;3205;42.666;23.264;2023-11-21T10:50:26;93980.59;;;12.87;100.00
6345;BME280;3205;42.666;23.264;2023-11-21T10:52:52;93979.72;;;12.79;100.00
6345;BME280;3205;42.666;23.264;2023-11-21T10:55:19;93966.97;;;12.66;100.00
6345;BME280;3205;42.666;23.264;2023-11-21T10:57:49;93971.00;;;12.57;100.00
6345;BME280;3205;42.666;23.264;2023-11-21T11:00:17;93976.25;;;12.53;100.00
6345;BME280;3205;42.666;23.264;2023-11-21T11:02:46;93968.72;;;12.55;100.00
6345;BME280;3205;42.666;23.264;2023-11-21T11:05:14;93967.13;;;12.51;100.00
6345;BME280;3205;42.666;23.264;2023-11-21T11:07:43;93952.72;;;12.74;100.00
6345;BME280;3205;42.666;23.264;2023-11-21T11:10:32;93961.41;;;12.71;100.00
6345;BME280;3205;42.666;23.264;2023-11-21T11:12:59;93956.94;;;12.53;100.00
6345;BME280;3205;42.666;23.264;2023-11-21T11:15:26;93955.22;;;12.41;100.00
6345;BME280;3205;42.666;23.264;2023-11-21T11:17:53;93932.28;;;12.52;100.00
6345;BME280;3205;42.666;23.264;2023-11-21T11:20:23;93927.28;;;12.47;100.00
6345;BME280;3205;42.666;23.264;2023-11-21T11:23:04;93934.75;;;12.42;100.00
6345;BME280;3205;42.666;23.264;2023-11-21T11:25:47;93926.75;;;12.38;100.00
6345;BME280;3205;42.666;23.264;2023-11-21T11:28:20;93921.75;;;12.56;100.00
6345;BME280;3205;42.666;23.264;2023-11-21T11:30:57;93927.50;;;12.61;100.00
6345;BME280;3205;42.666;23.264;2023-11-21T11:33:34;93918.34;;;12.55;100.00
6345;BME280;3205;42.666;23.264;2023-11-21T11:36:06;93913.91;;;12.62;100.00
6345;BME280;3205;42.666;23.264;2023-11-21T11:38:34;93915.63;;;12.52;100.00
6345;BME280;3205;42.666;23.264;2023-11-21T11:41:02;93923.47;;;12.45;100.00
6345;BME280;3205;42.666;23.264;2023-11-21T11:43:30;93934.88;;;12.26;100.00
6345;BME280;3205;42.666;23.264;2023-11-21T11:46:03;93932.25;;;12.26;100.00
6345;BME280;3205;42.666;23.264;2023-11-21T11:48:29;93927.94;;;12.18;100.00
6345;BME280;3205;42.666;23.264;2023-11-21T11:51:03;93922.44;;;12.08;100.00
6345;BME280;3205;42.666;23.264;2023-11-21T11:53:35;93923.91;;;12.05;100.00
6345;BME280;3205;42.666;23.264;2023-11-21T11:56:22;93918.38;;;11.91;100.00
6345;BME280;3205;42.666;23.264;2023-11-21T11:58:52;93918.97;;;11.82;100.00
6345;BME280;3205;42.666;23.264;2023-11-21T12:01:19;93921.13;;;11.76;100.00
6345;BME280;3205;42.666;23.264;2023-11-21T12:04:23;93928.16;;;11.69;100.00
6345;BME280;3205;42.666;23.264;2023-11-21T12:06:51;93931.72;;;11.57;100.00
6345;BME280;3205;42.666;23.264;2023-11-21T12:09:18;93906.28;;;11.53;100.00
6345;BME280;3205;42.666;23.264;2023-11-21T12:11:45;93925.41;;;11.46;100.00
6345;BME280;3205;42.666;23.264;2023-11-21T12:14:13;93926.59;;;11.30;100.00
6345;BME280;3205;42.666;23.264;2023-11-21T12:16:40;93936.47;;;11.14;100.00
6345;BME280;3205;42.666;23.264;2023-11-21T12:19:06;93934.84;;;11.09;100.00
6345;BME280;3205;42.666;23.264;2023-11-21T12:21:32;93913.13;;;11.19;100.00
6345;BME280;3205;42.666;23.264;2023-11-21T12:23:59;93910.03;;;11.33;100.00
6345;BME280;3205;42.666;23.264;2023-11-21T12:26:25;93906.34;;;11.18;100.00
6345;BME280;3205;42.666;23.264;2023-11-21T12:28:52;93921.28;;;11.11;100.00
6345;BME280;3205;42.666;23.264;2023-11-21T12:31:21;93930.69;;;11.08;100.00
6345;BME280;3205;42.666;23.264;2023-11-21T12:33:48;93921.75;;;10.98;100.00
6345;BME280;3205;42.666;23.264;2023-11-21T12:36:14;93914.66;;;11.02;100.00
6345;BME280;3205;42.666;23.264;2023-11-21T12:38:41;93914.13;;;11.11;100.00
6345;BME280;3205;42.666;23.264;2023-11-21T12:41:08;93898.09;;;11.05;100.00
6345;BME280;3205;42.666;23.264;2023-11-21T12:43:35;93905.31;;;10.89;100.00
6345;BME280;3205;42.666;23.264;2023-11-21T12:46:07;93904.88;;;10.87;100.00
6345;BME280;3205;42.666;23.264;2023-11-21T12:48:37;93893.69;;;10.93;100.00
6345;BME280;3205;42.666;23.264;2023-11-21T12:51:05;93886.31;;;11.02;100.00
6345;BME280;3205;42.666;23.264;2023-11-21T12:53:32;93883.13;;;10.93;100.00
6345;BME280;3205;42.666;23.264;2023-11-21T12:56:05;93891.97;;;11.01;100.00
6345;BME280;3205;42.666;23.264;2023-11-21T12:58:31;93879.47;;;11.16;100.00
6345;BME280;3205;42.666;23.264;2023-11-21T13:01:00;93876.03;;;10.97;100.00
6345;BME280;3205;42.666;23.264;2023-11-21T13:03:29;93863.44;;;10.91;100.00
6345;BME280;3205;42.666;23.264;2023-11-21T13:05:57;93860.78;;;10.91;100.00